Time;durP1;ratioP1;P1;durP2;ratioP2;P2;SDS_P1;SDS_P2;PMS_P1;PMS_P2;Temp;Humidity;BMP_temperature;BMP_pressure;BME280_temperature;BME280_humidity;BME280_pressure;Samples;Min_cycle;Max_cycle;Signal;HPM_P1;HPM_P2
2023/12/03 00:01:34;;;;;;;;;65.50;51.00;;;;;-147.47;100.00;64613.53;4913153;29;28397;-71
2023/12/03 00:04:00;;;;;;;;;62.75;50.50;;;;;-147.47;100.00;64613.53;4912793;29;28623;-71
2023/12/03 00:06:25;;;;;;;;;63.00;51.50;;;;;-147.47;100.00;64613.53;4916600;28;29072;-71
2023/12/03 00:08:51;;;;;;;;;66.25;52.25;;;;;-147.47;100.00;64613.53;4911833;29;28357;-71
2023/12/03 00:11:16;;;;;;;;;75.50;55.50;;;;;-147.47;100.00;64613.53;4913000;29;28375;-71
2023/12/03 00:13:42;;;;;;;;;66.25;48.00;;;;;-147.47;100.00;64613.53;4907178;29;28474;-72
2023/12/03 00:16:09;;;;;;;;;51.25;42.00;;;;;-147.47;100.00;64613.53;4912404;29;29118;-71
2023/12/03 00:18:34;;;;;;;;;58.50;46.75;;;;;-147.47;100.00;64613.53;4912155;28;28809;-71
2023/12/03 00:21:00;;;;;;;;;61.25;46.25;;;;;-147.47;100.00;64613.53;4911003;28;28603;-74
2023/12/03 00:23:26;;;;;;;;;74.75;54.25;;;;;-147.47;100.00;64613.53;4908849;29;28540;-70
2023/12/03 00:25:51;;;;;;;;;52.25;41.50;;;;;-147.47;100.00;64613.53;4912507;29;28470;-70
2023/12/03 00:28:16;;;;;;;;;50.25;40.25;;;;;-147.47;100.00;64613.53;4894311;29;30703;-71
2023/12/03 00:30:42;;;;;;;;;53.50;41.50;;;;;-147.47;100.00;64613.53;4908966;29;28442;-72
2023/12/03 00:33:07;;;;;;;;;56.00;43.25;;;;;-147.47;100.00;64613.53;4905743;29;28419;-70
2023/12/03 00:35:33;;;;;;;;;56.00;39.75;;;;;-147.47;100.00;64613.53;4905737;29;28524;-72
2023/12/03 00:37:58;;;;;;;;;49.75;41.75;;;;;-147.47;100.00;64613.53;4905912;28;28996;-69
2023/12/03 00:40:23;;;;;;;;;52.75;38.50;;;;;-147.47;100.00;64613.53;4894583;29;28863;-68
2023/12/03 00:42:49;;;;;;;;;51.25;40.75;;;;;-147.47;100.00;64613.53;4907382;29;28763;-68
2023/12/03 00:45:15;;;;;;;;;51.00;38.75;;;;;-147.47;100.00;64613.53;4912575;29;28638;-70
2023/12/03 00:47:40;;;;;;;;;57.50;43.00;;;;;-147.47;100.00;64613.53;4889526;29;30221;-71
2023/12/03 00:50:06;;;;;;;;;50.75;39.50;;;;;-147.47;100.00;64613.53;4904398;28;28377;-72
2023/12/03 00:52:31;;;;;;;;;44.50;34.50;;;;;-147.47;100.00;64613.53;4910490;29;28561;-72
2023/12/03 00:54:57;;;;;;;;;43.50;38.00;;;;;-147.47;100.00;64613.53;4906795;29;28681;-72
2023/12/03 00:57:24;;;;;;;;;48.50;37.75;;;;;-147.47;100.00;64613.53;4892725;29;29766;-72
2023/12/03 00:59:49;;;;;;;;;48.75;37.75;;;;;-147.47;100.00;64613.53;4912538;29;28501;-73
2023/12/03 01:02:14;;;;;;;;;43.50;35.25;;;;;-147.47;100.00;64613.53;4890976;29;28190;-71
2023/12/03 01:04:40;;;;;;;;;43.75;36.75;;;;;-147.47;100.00;64613.53;4912951;29;28812;-73
2023/12/03 01:07:07;;;;;;;;;43.50;32.25;;;;;-147.47;100.00;64613.53;4905981;29;31248;-73
2023/12/03 01:09:32;;;;;;;;;53.25;38.75;;;;;-147.47;100.00;64613.53;4913282;29;28491;-73
2023/12/03 01:11:58;;;;;;;;;49.50;36.50;;;;;-147.47;100.00;64613.53;4910848;29;35202;-72
2023/12/03 01:14:23;;;;;;;;;49.75;40.50;;;;;-147.47;100.00;64613.53;4912580;29;28555;-73
2023/12/03 01:16:49;;;;;;;;;59.50;43.00;;;;;-147.47;100.00;64613.53;4891710;29;30234;-71
2023/12/03 01:19:14;;;;;;;;;47.00;39.75;;;;;-147.47;100.00;64613.53;4917795;28;28461;-71
2023/12/03 01:21:39;;;;;;;;;36.75;32.00;;;;;-147.47;100.00;64613.53;4913717;28;29321;-71
2023/12/03 01:24:05;;;;;;;;;48.00;35.75;;;;;-147.47;100.00;64613.53;4912310;29;28441;-71
2023/12/03 01:26:30;;;;;;;;;37.50;29.25;;;;;-147.47;100.00;64613.53;4912549;29;28470;-71
2023/12/03 01:28:56;;;;;;;;;43.00;35.75;;;;;-147.47;100.00;64613.53;4909470;29;28809;-73
2023/12/03 01:31:21;;;;;;;;;40.00;35.25;;;;;-147.47;100.00;64613.53;4907938;28;28857;-71
2023/12/03 01:33:47;;;;;;;;;43.00;34.75;;;;;-147.47;100.00;64613.53;4895041;29;28672;-73
2023/12/03 01:36:12;;;;;;;;;52.75;38.25;;;;;-147.47;100.00;64613.53;4907922;29;28518;-70
2023/12/03 01:38:38;;;;;;;;;41.50;31.25;;;;;-147.47;100.00;64613.53;4910872;28;28431;-70
2023/12/03 01:41:03;;;;;;;;;46.50;34.00;;;;;-147.47;100.00;64613.53;4910824;29;28512;-72
2023/12/03 01:43:28;;;;;;;;;43.50;33.75;;;;;-147.47;100.00;64613.53;4906827;29;28472;-71
2023/12/03 01:45:54;;;;;;;;;43.00;34.50;;;;;-147.47;100.00;64613.53;4905810;29;29007;-72
2023/12/03 01:48:19;;;;;;;;;40.50;30.25;;;;;-147.47;100.00;64613.53;4900125;29;28855;-72
2023/12/03 01:50:47;;;;;;;;;50.00;36.25;;;;;-147.47;100.00;64613.53;4901749;29;28720;-71
2023/12/03 01:53:15;;;;;;;;;43.00;31.00;;;;;-147.47;100.00;64613.53;4904284;29;28870;-73
2023/12/03 01:55:40;;;;;;;;;43.00;33.00;;;;;-147.47;100.00;64613.53;4906917;29;28562;-70
2023/12/03 01:58:06;;;;;;;;;37.75;31.00;;;;;-147.47;100.00;64613.53;4903969;29;28359;-71
2023/12/03 02:00:32;;;;;;;;;46.25;34.50;;;;;-147.47;100.00;64613.53;4911301;29;28424;-71
2023/12/03 02:02:57;;;;;;;;;44.50;35.50;;;;;-147.47;100.00;64613.53;4904570;29;28890;-71
2023/12/03 02:05:23;;;;;;;;;54.25;36.75;;;;;-147.47;100.00;64613.53;4908779;29;28504;-71
2023/12/03 02:07:48;;;;;;;;;42.25;34.75;;;;;-147.47;100.00;64613.53;4909637;28;28618;-70
2023/12/03 02:10:14;;;;;;;;;48.50;36.50;;;;;-147.47;100.00;64613.53;4911603;28;28836;-72
2023/12/03 02:12:39;;;;;;;;;38.50;34.00;;;;;-147.47;100.00;64613.53;4910358;29;28984;-69
2023/12/03 02:15:05;;;;;;;;;47.25;37.00;;;;;-147.47;100.00;64613.53;4910391;29;28404;-70
2023/12/03 02:17:31;;;;;;;;;47.50;38.00;;;;;-147.47;100.00;64613.53;4910167;29;28577;-70
2023/12/03 02:19:56;;;;;;;;;52.25;36.50;;;;;-147.47;100.00;64613.53;4911664;28;28915;-73
2023/12/03 02:22:22;;;;;;;;;42.00;28.00;;;;;-147.47;100.00;64613.53;4911266;29;28996;-71
2023/12/03 02:24:47;;;;;;;;;44.50;33.50;;;;;-147.47;100.00;64613.53;4909342;29;28485;-72
2023/12/03 02:27:12;;;;;;;;;42.25;30.75;;;;;-147.47;100.00;64613.53;4909157;29;28636;-71
2023/12/03 02:29:38;;;;;;;;;46.00;34.50;;;;;-147.47;100.00;64613.53;4912425;29;28841;-72
2023/12/03 02:32:03;;;;;;;;;44.75;37.50;;;;;-147.47;100.00;64613.53;4908715;29;28791;-71
2023/12/03 02:34:29;;;;;;;;;36.50;23.50;;;;;-147.47;100.00;64613.53;4894391;29;31417;-71
2023/12/03 02:36:54;;;;;;;;;42.75;35.50;;;;;-147.47;100.00;64613.53;4910957;29;28414;-74
2023/12/03 02:39:20;;;;;;;;;47.50;35.75;;;;;-147.47;100.00;64613.53;4912276;29;28878;-70
2023/12/03 02:41:46;;;;;;;;;38.25;29.50;;;;;-147.47;100.00;64613.53;4909495;29;28416;-71
2023/12/03 02:44:11;;;;;;;;;48.00;38.25;;;;;-147.47;100.00;64613.53;4912989;28;28484;-69
2023/12/03 02:46:37;;;;;;;;;47.75;34.25;;;;;-147.47;100.00;64613.53;4912375;28;28335;-75
2023/12/03 02:49:02;;;;;;;;;44.00;36.50;;;;;-147.47;100.00;64613.53;4913756;29;28817;-71
2023/12/03 02:51:28;;;;;;;;;47.75;33.25;;;;;-147.47;100.00;64613.53;4913850;29;28777;-70
2023/12/03 02:53:57;;;;;;;;;43.50;33.00;;;;;-147.47;100.00;64613.53;4914321;28;29623;-71
2023/12/03 02:56:22;;;;;;;;;42.25;34.50;;;;;-147.47;100.00;64613.53;4909175;29;28391;-68
2023/12/03 02:58:47;;;;;;;;;39.75;34.25;;;;;-147.47;100.00;64613.53;4900529;29;28468;-70
2023/12/03 03:01:13;;;;;;;;;36.75;30.75;;;;;-147.47;100.00;64613.53;4913547;29;29043;-69
2023/12/03 03:03:38;;;;;;;;;47.50;33.00;;;;;-147.47;100.00;64613.53;4913500;28;29005;-69
2023/12/03 03:06:03;;;;;;;;;33.00;25.75;;;;;-147.47;100.00;64613.53;4913080;28;28791;-68
2023/12/03 03:08:29;;;;;;;;;35.25;32.25;;;;;-147.47;100.00;64613.53;4913176;29;28482;-70
2023/12/03 03:10:54;;;;;;;;;39.50;32.75;;;;;-147.47;100.00;64613.53;4900458;28;30137;-72
2023/12/03 03:13:20;;;;;;;;;31.25;25.25;;;;;-147.47;100.00;64613.53;4917627;28;28373;-72
2023/12/03 03:15:45;;;;;;;;;40.75;30.50;;;;;-147.47;100.00;64613.53;4894452;29;28531;-72
2023/12/03 03:18:11;;;;;;;;;32.50;28.50;;;;;-147.47;100.00;64613.53;4910268;29;28435;-71
2023/12/03 03:20:37;;;;;;;;;42.75;30.75;;;;;-147.47;100.00;64613.53;4912959;28;28810;-72
2023/12/03 03:23:02;;;;;;;;;34.50;28.25;;;;;-147.47;100.00;64613.53;4911190;29;29236;-72
2023/12/03 03:25:28;;;;;;;;;39.75;33.00;;;;;-147.47;100.00;64613.53;4913314;29;28497;-70
2023/12/03 03:27:53;;;;;;;;;35.00;28.25;;;;;-147.47;100.00;64613.53;4918902;28;28781;-69
2023/12/03 03:30:18;;;;;;;;;39.50;29.50;;;;;-147.47;100.00;64613.53;4912447;29;28406;-70
2023/12/03 03:32:44;;;;;;;;;37.75;26.00;;;;;-147.47;100.00;64613.53;4907914;29;28802;-70
2023/12/03 03:35:09;;;;;;;;;33.25;23.25;;;;;-147.47;100.00;64613.53;4895322;29;28409;-69
2023/12/03 03:37:35;;;;;;;;;33.25;29.25;;;;;-147.47;100.00;64613.53;4893483;29;28450;-69
2023/12/03 03:40:00;;;;;;;;;33.50;26.00;;;;;-147.47;100.00;64613.53;4890618;29;28534;-74
2023/12/03 03:42:26;;;;;;;;;33.50;31.00;;;;;-147.47;100.00;64613.53;4895935;29;30110;-70
2023/12/03 03:44:51;;;;;;;;;36.75;30.00;;;;;-147.47;100.00;64613.53;4902530;29;28618;-71
2023/12/03 03:47:17;;;;;;;;;34.75;29.25;;;;;-147.47;100.00;64613.53;4913687;29;28721;-70
2023/12/03 03:49:42;;;;;;;;;33.50;33.50;;;;;-147.47;100.00;64613.53;4897119;29;30409;-72
2023/12/03 03:52:08;;;;;;;;;30.50;23.50;;;;;-147.47;100.00;64613.53;4911567;29;28537;-72
2023/12/03 03:54:33;;;;;;;;;40.25;29.75;;;;;-147.47;100.00;64613.53;4895254;29;28801;-71
2023/12/03 03:56:59;;;;;;;;;36.25;32.00;;;;;-147.47;100.00;64613.53;4928341;23;28532;-77
2023/12/03 03:59:25;;;;;;;;;39.50;32.50;;;;;-147.47;100.00;64613.53;4920586;29;28286;-76
2023/12/03 04:01:51;;;;;;;;;42.25;32.25;;;;;-147.47;100.00;64613.53;4921535;29;28559;-77
2023/12/03 04:04:17;;;;;;;;;41.00;35.00;;;;;-147.47;100.00;64613.53;4900852;29;28526;-78
2023/12/03 04:06:47;;;;;;;;;39.50;29.00;;;;;-147.47;100.00;64613.53;4919054;29;28661;-78
2023/12/03 04:09:13;;;;;;;;;44.00;33.75;;;;;-147.47;100.00;64613.53;4918974;29;28934;-79
2023/12/03 04:11:46;;;;;;;;;39.25;32.75;;;;;-147.47;100.00;64613.53;4916319;29;29365;-78
2023/12/03 04:14:15;;;;;;;;;45.50;32.25;;;;;-147.47;100.00;64613.53;4924013;29;28641;-80
2023/12/03 04:16:40;;;;;;;;;39.75;32.75;;;;;-147.47;100.00;64613.53;4905954;29;27965;-81
2023/12/03 04:19:06;;;;;;;;;39.25;32.50;;;;;-147.47;100.00;64613.53;4926792;29;28649;-78
2023/12/03 04:21:32;;;;;;;;;38.75;31.00;;;;;-147.47;100.00;64613.53;4906311;29;29796;-78
2023/12/03 04:23:58;;;;;;;;;34.25;32.75;;;;;-147.47;100.00;64613.53;4902590;29;28433;-80
2023/12/03 04:26:24;;;;;;;;;47.75;36.50;;;;;-147.47;100.00;64613.53;4924918;29;28900;-77
2023/12/03 04:28:49;;;;;;;;;41.50;32.25;;;;;-147.47;100.00;64613.53;4925150;29;28641;-77
2023/12/03 04:31:25;;;;;;;;;46.00;34.25;;;;;-147.47;100.00;64613.53;4924346;29;29601;-77
2023/12/03 04:33:56;;;;;;;;;38.25;28.50;;;;;-147.47;100.00;64613.53;4923218;29;27927;-75
2023/12/03 04:36:23;;;;;;;;;38.75;33.50;;;;;-147.47;100.00;64613.53;4904767;29;28833;-78
2023/12/03 04:38:49;;;;;;;;;34.25;30.00;;;;;-147.47;100.00;64613.53;4921967;29;27946;-76
2023/12/03 04:41:14;;;;;;;;;37.00;29.50;;;;;-147.47;100.00;64613.53;4922731;29;28834;-78
2023/12/03 04:43:40;;;;;;;;;36.50;31.25;;;;;-147.47;100.00;64613.53;4923306;29;27780;-78
2023/12/03 04:46:06;;;;;;;;;39.50;30.50;;;;;-147.47;100.00;64613.53;4897303;29;28727;-79
2023/12/03 04:48:34;;;;;;;;;36.00;30.75;;;;;-147.47;100.00;64613.53;4918028;28;28453;-78
2023/12/03 04:51:00;;;;;;;;;40.50;29.00;;;;;-147.47;100.00;64613.53;4903615;29;30072;-78
2023/12/03 04:53:26;;;;;;;;;35.50;30.00;;;;;-147.47;100.00;64613.53;4900244;28;28357;-78
2023/12/03 04:55:51;;;;;;;;;35.75;27.25;;;;;-147.47;100.00;64613.53;4914518;29;28839;-80
2023/12/03 04:58:17;;;;;;;;;42.00;34.00;;;;;-147.47;100.00;64613.53;4902312;29;29846;-79
2023/12/03 05:00:42;;;;;;;;;38.50;31.25;;;;;-147.47;100.00;64613.53;4920188;28;29533;-78
2023/12/03 05:03:08;;;;;;;;;41.75;30.50;;;;;-147.47;100.00;64613.53;4903061;29;28799;-76
2023/12/03 05:05:33;;;;;;;;;43.75;34.25;;;;;-147.47;100.00;64613.53;4911788;29;28426;-77
2023/12/03 05:08:00;;;;;;;;;35.00;31.25;;;;;-147.47;100.00;64613.53;4914672;28;28643;-77
2023/12/03 05:10:26;;;;;;;;;41.00;32.25;;;;;-147.47;100.00;64613.53;4920844;29;29430;-77
2023/12/03 05:12:51;;;;;;;;;44.75;30.25;;;;;-147.47;100.00;64613.53;4920820;29;28471;-77
2023/12/03 05:15:17;;;;;;;;;35.00;29.75;;;;;-147.47;100.00;64613.53;4899402;29;27979;-78
2023/12/03 05:17:42;;;;;;;;;43.75;29.50;;;;;-147.47;100.00;64613.53;4918993;29;28482;-80
2023/12/03 05:20:09;;;;;;;;;46.50;34.75;;;;;-147.47;100.00;64613.53;4901711;29;28743;-77
2023/12/03 05:22:34;;;;;;;;;33.75;31.75;;;;;-147.47;100.00;64613.53;4923122;29;28573;-77
2023/12/03 05:25:00;;;;;;;;;46.00;36.00;;;;;-147.47;100.00;64613.53;4920411;29;28886;-79
2023/12/03 05:27:26;;;;;;;;;42.25;36.00;;;;;-147.47;100.00;64613.53;4889845;28;29515;-78
2023/12/03 05:29:52;;;;;;;;;30.75;26.25;;;;;-147.47;100.00;64613.53;4923007;29;29347;-78
2023/12/03 05:32:17;;;;;;;;;45.25;35.50;;;;;-147.47;100.00;64613.53;4923530;28;28451;-79
2023/12/03 05:34:44;;;;;;;;;45.75;34.50;;;;;-147.47;100.00;64613.53;4920239;28;28119;-78
2023/12/03 05:37:10;;;;;;;;;49.25;38.25;;;;;-147.47;100.00;64613.53;4921841;29;28461;-77
2023/12/03 05:39:40;;;;;;;;;40.25;30.50;;;;;-147.47;100.00;64613.53;4921638;29;28540;-77
2023/12/03 05:42:06;;;;;;;;;49.75;36.75;;;;;-147.47;100.00;64613.53;4899572;29;28465;-78
2023/12/03 05:44:32;;;;;;;;;53.75;39.00;;;;;-147.47;100.00;64613.53;4922109;29;28508;-78
2023/12/03 05:46:57;;;;;;;;;43.75;36.50;;;;;-147.47;100.00;64613.53;4907457;29;29676;-79
2023/12/03 05:49:22;;;;;;;;;41.00;37.00;;;;;-147.47;100.00;64613.53;4924614;28;28439;-77
2023/12/03 05:51:49;;;;;;;;;43.25;32.75;;;;;-147.47;100.00;64613.53;4914813;28;28476;-78
2023/12/03 05:54:15;;;;;;;;;45.50;37.25;;;;;-147.47;100.00;64613.53;4905193;29;28491;-78
2023/12/03 05:56:41;;;;;;;;;46.00;35.50;;;;;-147.47;100.00;64613.53;4921843;29;28522;-79
2023/12/03 05:59:06;;;;;;;;;47.50;35.00;;;;;-147.47;100.00;64613.53;4921197;29;28349;-77
2023/12/03 06:01:32;;;;;;;;;47.00;36.25;;;;;-147.47;100.00;64613.53;4906037;29;28676;-79
2023/12/03 06:03:57;;;;;;;;;44.75;37.00;;;;;-147.47;100.00;64613.53;4907135;29;28202;-79
2023/12/03 06:06:23;;;;;;;;;43.75;35.25;;;;;-147.47;100.00;64613.53;4905435;29;28498;-79
2023/12/03 06:08:49;;;;;;;;;43.75;36.50;;;;;-147.47;100.00;64613.53;4925497;29;28857;-79
2023/12/03 06:11:15;;;;;;;;;39.00;34.75;;;;;-147.47;100.00;64613.53;4924868;29;28309;-78
2023/12/03 06:13:40;;;;;;;;;46.00;36.00;;;;;-147.47;100.00;64613.53;4925088;28;28399;-78
2023/12/03 06:16:06;;;;;;;;;43.00;35.00;;;;;-147.47;100.00;64613.53;4926449;29;28701;-78
2023/12/03 06:18:32;;;;;;;;;42.50;34.25;;;;;-147.47;100.00;64613.53;4924055;29;29668;-79
2023/12/03 06:20:57;;;;;;;;;45.25;35.75;;;;;-147.47;100.00;64613.53;4928302;28;28470;-79
2023/12/03 06:23:23;;;;;;;;;49.50;40.25;;;;;-147.47;100.00;64613.53;4922370;29;28233;-78
2023/12/03 06:25:49;;;;;;;;;48.25;34.25;;;;;-147.47;100.00;64613.53;4924252;29;28656;-80
2023/12/03 06:28:14;;;;;;;;;49.00;35.00;;;;;-147.47;100.00;64613.53;4923091;29;28181;-79
2023/12/03 06:30:40;;;;;;;;;53.75;39.00;;;;;-147.47;100.00;64613.53;4921299;28;28538;-79
2023/12/03 06:33:05;;;;;;;;;47.25;38.00;;;;;-147.47;100.00;64613.53;4909555;29;29146;-78
2023/12/03 06:35:31;;;;;;;;;54.00;38.50;;;;;-147.47;100.00;64613.53;4923593;29;28700;-78
2023/12/03 06:37:56;;;;;;;;;55.00;40.00;;;;;-147.47;100.00;64613.53;4923538;29;28671;-80
2023/12/03 06:40:21;;;;;;;;;47.25;39.75;;;;;-147.47;100.00;64613.53;4920483;29;28240;-79
2023/12/03 06:42:47;;;;;;;;;44.50;34.50;;;;;-147.47;100.00;64613.53;4917136;29;28622;-78
2023/12/03 06:45:15;;;;;;;;;46.00;37.75;;;;;-147.47;100.00;64613.53;4925215;29;28573;-82
2023/12/03 06:47:40;;;;;;;;;53.75;40.00;;;;;-147.47;100.00;64613.53;4909229;29;30129;-78
2023/12/03 06:50:06;;;;;;;;;55.00;38.50;;;;;-147.47;100.00;64613.53;4921235;28;29703;-78
2023/12/03 06:52:32;;;;;;;;;45.00;38.25;;;;;-147.47;100.00;64613.53;4921710;29;28460;-79
2023/12/03 06:54:57;;;;;;;;;43.25;36.50;;;;;-147.47;100.00;64613.53;4921996;28;28527;-79
2023/12/03 06:57:23;;;;;;;;;43.25;36.75;;;;;-147.47;100.00;64613.53;4920010;29;28159;-80
2023/12/03 06:59:48;;;;;;;;;44.50;35.50;;;;;-147.47;100.00;64613.53;4922304;29;28489;-83
2023/12/03 07:02:13;;;;;;;;;41.25;34.50;;;;;-147.47;100.00;64613.53;4926819;29;28578;-82
2023/12/03 07:04:39;;;;;;;;;49.25;36.00;;;;;-147.47;100.00;64613.53;4937748;28;28359;-79
2023/12/03 07:07:05;;;;;;;;;47.00;37.00;;;;;-147.47;100.00;64613.53;4927715;28;29846;-80
2023/12/03 07:09:31;;;;;;;;;43.50;29.75;;;;;-147.47;100.00;64613.53;4931006;29;28544;-77
2023/12/03 07:11:57;;;;;;;;;56.00;39.75;;;;;-147.47;100.00;64613.53;4914497;29;27910;-73
2023/12/03 07:14:24;;;;;;;;;46.75;32.75;;;;;-147.47;100.00;64613.53;4910411;29;29290;-79
2023/12/03 07:16:51;;;;;;;;;42.50;36.00;;;;;-147.47;100.00;64613.53;4916262;28;29793;-79
2023/12/03 07:19:16;;;;;;;;;50.25;35.50;;;;;-147.47;100.00;64613.53;4916144;28;28588;-81
2023/12/03 07:21:42;;;;;;;;;53.00;37.75;;;;;-147.47;100.00;64613.53;4935411;29;28547;-79
2023/12/03 07:24:07;;;;;;;;;48.00;38.00;;;;;-147.47;100.00;64613.53;4908710;29;27975;-80
2023/12/03 07:26:33;;;;;;;;;48.00;34.50;;;;;-147.47;100.00;64613.53;4915365;29;28687;-79
2023/12/03 07:28:59;;;;;;;;;48.50;37.00;;;;;-147.47;100.00;64613.53;4925799;28;28684;-80
2023/12/03 07:31:25;;;;;;;;;36.25;30.00;;;;;-147.47;100.00;64613.53;4919417;29;27940;-82
2023/12/03 07:33:50;;;;;;;;;51.75;35.75;;;;;-147.47;100.00;64613.53;4910684;28;29451;-81
2023/12/03 07:36:16;;;;;;;;;53.00;37.25;;;;;-147.47;100.00;64613.53;4938042;28;29205;-80
2023/12/03 07:38:41;;;;;;;;;48.75;30.25;;;;;-147.47;100.00;64613.53;4936941;28;28845;-81
2023/12/03 07:41:10;;;;;;;;;43.25;34.25;;;;;-147.47;100.00;64613.53;4935274;28;27949;-80
2023/12/03 07:43:36;;;;;;;;;34.50;28.50;;;;;-147.47;100.00;64613.53;4931811;28;27993;-80
2023/12/03 07:46:02;;;;;;;;;44.50;36.00;;;;;-147.47;100.00;64613.53;4920251;29;27991;-81
2023/12/03 07:48:27;;;;;;;;;55.25;41.00;;;;;-147.47;100.00;64613.53;4913402;29;28430;-80
2023/12/03 07:50:52;;;;;;;;;50.50;35.25;;;;;-147.47;100.00;64613.53;4922418;28;28466;-76
2023/12/03 07:53:18;;;;;;;;;52.25;36.25;;;;;-147.47;100.00;64613.53;4902319;28;30167;-74
2023/12/03 07:55:43;;;;;;;;;44.50;37.50;;;;;-147.47;100.00;64613.53;4922101;28;28554;-75
2023/12/03 07:58:09;;;;;;;;;46.00;34.00;;;;;-147.47;100.00;64613.53;4922864;29;28546;-79
2023/12/03 08:00:36;;;;;;;;;51.50;40.00;;;;;-147.47;100.00;64613.53;4915228;28;27836;-75
2023/12/03 08:03:01;;;;;;;;;40.50;36.75;;;;;-147.47;100.00;64613.53;4899973;29;29234;-75
2023/12/03 08:05:27;;;;;;;;;48.75;36.75;;;;;-147.47;100.00;64613.53;4928730;28;28541;-78
2023/12/03 08:07:53;;;;;;;;;48.50;36.75;;;;;-147.47;100.00;64613.53;4902563;29;29218;-75
2023/12/03 08:10:18;;;;;;;;;48.25;35.50;;;;;-147.47;100.00;64613.53;4922477;28;28528;-76
2023/12/03 08:12:43;;;;;;;;;39.75;34.25;;;;;-147.47;100.00;64613.53;4902979;29;29393;-75
2023/12/03 08:15:09;;;;;;;;;45.75;36.50;;;;;-147.47;100.00;64613.53;4910139;29;28716;-76
2023/12/03 08:17:34;;;;;;;;;49.00;40.50;;;;;-147.47;100.00;64613.53;4921407;28;28942;-77
2023/12/03 08:20:00;;;;;;;;;51.50;38.75;;;;;-147.47;100.00;64613.53;4905633;29;27954;-79
2023/12/03 08:22:26;;;;;;;;;46.25;37.00;;;;;-147.47;100.00;64613.53;4930611;28;28506;-77
2023/12/03 08:24:52;;;;;;;;;51.75;39.00;;;;;-147.47;100.00;64613.53;4923817;28;28526;-78
2023/12/03 08:27:18;;;;;;;;;51.75;35.00;;;;;-147.47;100.00;64613.53;4906766;28;28717;-76
2023/12/03 08:29:43;;;;;;;;;40.25;31.25;;;;;-147.47;100.00;64613.53;4920117;29;28442;-75
2023/12/03 08:32:09;;;;;;;;;47.75;38.00;;;;;-147.47;100.00;64613.53;4899679;28;29412;-75
2023/12/03 08:34:34;;;;;;;;;41.75;36.50;;;;;-147.47;100.00;64613.53;4917142;29;28511;-76
2023/12/03 08:36:59;;;;;;;;;43.50;36.00;;;;;-147.47;100.00;64613.53;4923581;28;28825;-75
2023/12/03 08:39:25;;;;;;;;;46.50;37.00;;;;;-147.47;100.00;64613.53;4921263;29;28585;-77
2023/12/03 08:41:50;;;;;;;;;44.25;37.25;;;;;-147.47;100.00;64613.53;4921393;29;28450;-76
2023/12/03 08:44:15;;;;;;;;;44.75;33.00;;;;;-147.47;100.00;64613.53;4900235;29;28670;-76
2023/12/03 08:46:41;;;;;;;;;59.00;42.50;;;;;-147.47;100.00;64613.53;4917444;29;28406;-76
2023/12/03 08:49:06;;;;;;;;;37.00;32.50;;;;;-147.47;100.00;64613.53;4903091;29;28448;-76
2023/12/03 08:51:32;;;;;;;;;43.25;36.00;;;;;-147.47;100.00;64613.53;4923824;29;28436;-76
2023/12/03 08:53:58;;;;;;;;;34.75;31.75;;;;;-147.47;100.00;64613.53;4929970;28;28791;-76
2023/12/03 08:56:23;;;;;;;;;46.00;35.50;;;;;-147.47;100.00;64613.53;4917869;29;28791;-77
2023/12/03 08:58:48;;;;;;;;;47.25;36.25;;;;;-147.47;100.00;64613.53;4917019;29;28953;-77
2023/12/03 09:01:14;;;;;;;;;46.00;35.50;;;;;-147.47;100.00;64613.53;4924483;28;28571;-78
2023/12/03 09:03:40;;;;;;;;;49.00;39.50;;;;;-147.47;100.00;64613.53;4921930;28;28082;-77
2023/12/03 09:06:06;;;;;;;;;43.50;36.50;;;;;-147.47;100.00;64613.53;4905529;29;29001;-78
2023/12/03 09:08:32;;;;;;;;;42.75;34.50;;;;;-147.47;100.00;64613.53;4905609;29;27952;-78
2023/12/03 09:10:59;;;;;;;;;53.50;38.75;;;;;-147.47;100.00;64613.53;4920473;29;28697;-77
2023/12/03 09:13:25;;;;;;;;;35.50;30.50;;;;;-147.47;100.00;64613.53;4908072;29;30306;-80
2023/12/03 09:15:51;;;;;;;;;33.00;29.25;;;;;-147.47;100.00;64613.53;4904470;28;29053;-78
2023/12/03 09:18:17;;;;;;;;;41.25;30.75;;;;;-147.47;100.00;64613.53;4911518;29;28587;-76
2023/12/03 09:20:42;;;;;;;;;40.00;30.50;;;;;-147.47;100.00;64613.53;4920044;28;28301;-74
2023/12/03 09:23:08;;;;;;;;;50.00;37.25;;;;;-147.47;100.00;64613.53;4919851;28;28678;-76
2023/12/03 09:25:33;;;;;;;;;46.25;36.00;;;;;-147.47;100.00;64613.53;4906835;28;29032;-74
2023/12/03 09:27:58;;;;;;;;;38.50;28.50;;;;;-147.47;100.00;64613.53;4915953;28;28794;-77
2023/12/03 09:30:24;;;;;;;;;36.50;33.75;;;;;-147.47;100.00;64613.53;4911812;29;28503;-77
2023/12/03 09:32:49;;;;;;;;;37.75;26.75;;;;;-147.47;100.00;64613.53;4925662;28;29386;-77
2023/12/03 09:35:15;;;;;;;;;37.75;34.75;;;;;-147.47;100.00;64613.53;4928809;28;28610;-78
2023/12/03 09:37:40;;;;;;;;;40.50;33.25;;;;;-147.47;100.00;64613.53;4904400;29;28286;-77
2023/12/03 09:40:06;;;;;;;;;38.50;30.25;;;;;-147.47;100.00;64613.53;4904275;28;29423;-77
2023/12/03 09:42:36;;;;;;;;;48.00;37.00;;;;;-147.47;100.00;64613.53;4921945;28;28520;-76
2023/12/03 09:45:04;;;;;;;;;32.00;30.75;;;;;-147.47;100.00;64613.53;4900106;29;29644;-76
2023/12/03 09:47:34;;;;;;;;;41.00;35.00;;;;;-147.47;100.00;64613.53;4916731;28;28456;-77
2023/12/03 09:50:00;;;;;;;;;43.00;33.75;;;;;-147.47;100.00;64613.53;4908617;29;29965;-79
2023/12/03 09:52:30;;;;;;;;;40.50;34.25;;;;;-147.47;100.00;64613.53;4932115;29;28301;-81
2023/12/03 09:55:00;;;;;;;;;36.50;29.00;;;;;-147.47;100.00;64613.53;4923308;28;28858;-76
2023/12/03 09:57:30;;;;;;;;;39.25;31.75;;;;;-147.47;100.00;64613.53;4923172;28;28549;-76
2023/12/03 10:00:01;;;;;;;;;39.50;34.00;;;;;-147.47;100.00;64613.53;4924081;28;28562;-77
2023/12/03 10:02:31;;;;;;;;;45.75;31.00;;;;;-147.47;100.00;64613.53;4909521;29;29335;-76
2023/12/03 10:04:57;;;;;;;;;39.00;37.25;;;;;-147.47;100.00;64613.53;4915210;29;28848;-77
2023/12/03 10:07:27;;;;;;;;;47.75;38.25;;;;;-147.47;100.00;64613.53;4905638;29;28335;-81
2023/12/03 10:09:56;;;;;;;;;29.00;25.25;;;;;-147.47;100.00;64613.53;4929215;29;28593;-79
2023/12/03 10:12:32;;;;;;;;;37.75;30.50;;;;;-147.47;100.00;64613.53;4911661;29;29922;-81
2023/12/03 10:15:00;;;;;;;;;36.00;31.50;;;;;-147.47;100.00;64613.53;4924100;28;28615;-81
2023/12/03 10:17:26;;;;;;;;;40.25;34.00;;;;;-147.47;100.00;64613.53;4901986;28;28188;-79
2023/12/03 10:19:52;;;;;;;;;40.50;31.50;;;;;-147.47;100.00;64613.53;4913818;28;28968;-80
2023/12/03 10:22:30;;;;;;;;;35.25;27.75;;;;;-147.47;100.00;64613.53;4921349;28;29782;-80
2023/12/03 10:24:55;;;;;;;;;33.25;28.75;;;;;-147.47;100.00;64613.53;4923242;28;28580;-80
2023/12/03 10:27:20;;;;;;;;;30.75;26.75;;;;;-147.47;100.00;64613.53;4921307;28;28470;-78
2023/12/03 10:29:46;;;;;;;;;40.75;26.75;;;;;-147.47;100.00;64613.53;4908222;29;29484;-80
2023/12/03 10:32:12;;;;;;;;;47.75;35.25;;;;;-147.47;100.00;64613.53;4921177;29;28599;-76
2023/12/03 10:34:43;;;;;;;;;38.25;34.00;;;;;-147.47;100.00;64613.53;4921170;29;28585;-78
2023/12/03 10:37:09;;;;;;;;;39.25;34.00;;;;;-147.47;100.00;64613.53;4921052;28;28513;-75
2023/12/03 10:39:37;;;;;;;;;38.00;33.75;;;;;-147.47;100.00;64613.53;4919943;29;29027;-77
2023/12/03 10:42:03;;;;;;;;;39.50;31.00;;;;;-147.47;100.00;64613.53;4901421;29;29171;-77
2023/12/03 10:44:28;;;;;;;;;46.50;32.50;;;;;-147.47;100.00;64613.53;4908256;29;27994;-78
2023/12/03 10:46:57;;;;;;;;;31.00;28.25;;;;;-147.47;100.00;64613.53;4908861;29;28337;-79
2023/12/03 10:49:28;;;;;;;;;35.25;30.25;;;;;-147.47;100.00;64613.53;4923730;29;28113;-78